sensor_id;sensor_type;location;lat;lon;timestamp;temperature;humidity
9177;DHT22;4623;54.310;10.112;2023-01-16T00:00:47;5.40;99.90
9177;DHT22;4623;54.310;10.112;2023-01-16T00:03:13;5.50;99.90
9177;DHT22;4623;54.310;10.112;2023-01-16T00:05:38;5.50;99.90
9177;DHT22;4623;54.310;10.112;2023-01-16T00:08:04;5.50;99.90
9177;DHT22;4623;54.310;10.112;2023-01-16T00:10:29;5.50;99.90
9177;DHT22;4623;54.310;10.112;2023-01-16T00:12:55;5.50;99.90
9177;DHT22;4623;54.310;10.112;2023-01-16T00:15:20;5.50;99.90
9177;DHT22;4623;54.310;10.112;2023-01-16T00:17:46;5.50;99.90
9177;DHT22;4623;54.310;10.112;2023-01-16T00:20:13;5.60;99.90
9177;DHT22;4623;54.310;10.112;2023-01-16T00:22:39;5.60;99.90
9177;DHT22;4623;54.310;10.112;2023-01-16T00:25:05;5.60;99.90
9177;DHT22;4623;54.310;10.112;2023-01-16T00:27:30;5.70;99.90
9177;DHT22;4623;54.310;10.112;2023-01-16T00:29:56;5.60;99.90
9177;DHT22;4623;54.310;10.112;2023-01-16T00:32:21;5.60;99.90
9177;DHT22;4623;54.310;10.112;2023-01-16T00:34:47;5.60;99.90
9177;DHT22;4623;54.310;10.112;2023-01-16T00:37:12;5.60;99.90
9177;DHT22;4623;54.310;10.112;2023-01-16T00:39:38;5.50;99.90
9177;DHT22;4623;54.310;10.112;2023-01-16T00:42:05;5.50;99.90
9177;DHT22;4623;54.310;10.112;2023-01-16T00:44:31;5.60;99.90
9177;DHT22;4623;54.310;10.112;2023-01-16T00:46:56;5.60;99.90
9177;DHT22;4623;54.310;10.112;2023-01-16T00:49:22;5.60;99.90
9177;DHT22;4623;54.310;10.112;2023-01-16T00:51:47;5.60;99.90
9177;DHT22;4623;54.310;10.112;2023-01-16T00:54:13;5.60;99.90
9177;DHT22;4623;54.310;10.112;2023-01-16T00:56:38;5.60;99.90
9177;DHT22;4623;54.310;10.112;2023-01-16T00:59:04;5.50;99.90
9177;DHT22;4623;54.310;10.112;2023-01-16T01:01:29;5.40;99.90
9177;DHT22;4623;54.310;10.112;2023-01-16T01:03:55;5.40;99.90
9177;DHT22;4623;54.310;10.112;2023-01-16T01:06:22;5.40;99.90
9177;DHT22;4623;54.310;10.112;2023-01-16T01:08:48;5.40;99.90
9177;DHT22;4623;54.310;10.112;2023-01-16T01:11:14;5.40;99.90
9177;DHT22;4623;54.310;10.112;2023-01-16T01:13:40;5.40;99.90
9177;DHT22;4623;54.310;10.112;2023-01-16T01:16:07;5.40;99.90
9177;DHT22;4623;54.310;10.112;2023-01-16T01:18:33;5.40;99.90
9177;DHT22;4623;54.310;10.112;2023-01-16T01:20:59;5.40;99.90
9177;DHT22;4623;54.310;10.112;2023-01-16T01:23:24;5.40;99.90
9177;DHT22;4623;54.310;10.112;2023-01-16T01:25:50;5.30;99.90
9177;DHT22;4623;54.310;10.112;2023-01-16T01:28:16;5.40;99.90
9177;DHT22;4623;54.310;10.112;2023-01-16T01:30:41;5.30;99.90
9177;DHT22;4623;54.310;10.112;2023-01-16T01:33:07;5.30;99.90
9177;DHT22;4623;54.310;10.112;2023-01-16T01:35:34;5.30;99.90
9177;DHT22;4623;54.310;10.112;2023-01-16T01:37:59;5.30;99.90
9177;DHT22;4623;54.310;10.112;2023-01-16T01:40:25;5.30;99.90
9177;DHT22;4623;54.310;10.112;2023-01-16T01:42:50;5.30;99.90
9177;DHT22;4623;54.310;10.112;2023-01-16T01:45:23;5.30;99.90
9177;DHT22;4623;54.310;10.112;2023-01-16T01:48:08;5.30;99.90
9177;DHT22;4623;54.310;10.112;2023-01-16T01:50:59;5.20;99.90
9177;DHT22;4623;54.310;10.112;2023-01-16T01:54:03;5.30;99.90
9177;DHT22;4623;54.310;10.112;2023-01-16T01:56:26;5.30;99.90
9177;DHT22;4623;54.310;10.112;2023-01-16T01:58:56;5.30;99.90
9177;DHT22;4623;54.310;10.112;2023-01-16T02:01:24;5.30;99.90
9177;DHT22;4623;54.310;10.112;2023-01-16T02:04:13;5.40;99.90
9177;DHT22;4623;54.310;10.112;2023-01-16T02:06:44;5.40;99.90
9177;DHT22;4623;54.310;10.112;2023-01-16T02:09:11;5.40;99.90
9177;DHT22;4623;54.310;10.112;2023-01-16T02:11:56;5.40;99.90
9177;DHT22;4623;54.310;10.112;2023-01-16T02:14:23;5.50;99.90
9177;DHT22;4623;54.310;10.112;2023-01-16T02:17:02;5.50;99.90
9177;DHT22;4623;54.310;10.112;2023-01-16T02:36:27;5.50;99.90
9177;DHT22;4623;54.310;10.112;2023-01-16T02:41:46;5.50;99.90
9177;DHT22;4623;54.310;10.112;2023-01-16T02:44:37;5.50;99.90
9177;DHT22;4623;54.310;10.112;2023-01-16T02:47:15;5.50;99.90
9177;DHT22;4623;54.310;10.112;2023-01-16T02:49:50;5.50;99.90
9177;DHT22;4623;54.310;10.112;2023-01-16T02:55:01;5.60;99.90
9177;DHT22;4623;54.310;10.112;2023-01-16T02:57:37;5.70;99.90
9177;DHT22;4623;54.310;10.112;2023-01-16T03:00:06;5.70;99.90
9177;DHT22;4623;54.310;10.112;2023-01-16T03:02:32;5.80;99.90
9177;DHT22;4623;54.310;10.112;2023-01-16T03:04:57;5.80;99.90
9177;DHT22;4623;54.310;10.112;2023-01-16T03:07:46;5.80;99.90
9177;DHT22;4623;54.310;10.112;2023-01-16T03:10:44;5.80;99.90
9177;DHT22;4623;54.310;10.112;2023-01-16T03:16:23;5.70;99.90
9177;DHT22;4623;54.310;10.112;2023-01-16T03:19:16;5.70;99.90
9177;DHT22;4623;54.310;10.112;2023-01-16T03:30:07;5.50;99.90
9177;DHT22;4623;54.310;10.112;2023-01-16T03:32:40;5.50;99.90
9177;DHT22;4623;54.310;10.112;2023-01-16T03:35:13;5.40;99.90
9177;DHT22;4623;54.310;10.112;2023-01-16T03:37:44;5.40;99.90
9177;DHT22;4623;54.310;10.112;2023-01-16T03:40:14;5.40;99.90
9177;DHT22;4623;54.310;10.112;2023-01-16T03:42:55;5.40;99.90
9177;DHT22;4623;54.310;10.112;2023-01-16T03:45:31;5.40;99.90
9177;DHT22;4623;54.310;10.112;2023-01-16T03:48:12;5.40;99.90
9177;DHT22;4623;54.310;10.112;2023-01-16T03:50:42;5.40;99.90
9177;DHT22;4623;54.310;10.112;2023-01-16T03:53:13;5.40;99.90
9177;DHT22;4623;54.310;10.112;2023-01-16T03:55:45;5.50;99.90
9177;DHT22;4623;54.310;10.112;2023-01-16T03:58:24;5.50;99.90
9177;DHT22;4623;54.310;10.112;2023-01-16T04:01:06;5.50;99.90
9177;DHT22;4623;54.310;10.112;2023-01-16T04:03:40;5.60;99.90
9177;DHT22;4623;54.310;10.112;2023-01-16T04:06:42;5.50;99.90
9177;DHT22;4623;54.310;10.112;2023-01-16T04:09:15;5.50;99.90
9177;DHT22;4623;54.310;10.112;2023-01-16T04:11:44;5.50;99.90
9177;DHT22;4623;54.310;10.112;2023-01-16T04:14:11;5.50;99.90
9177;DHT22;4623;54.310;10.112;2023-01-16T04:16:38;5.50;99.90
9177;DHT22;4623;54.310;10.112;2023-01-16T04:19:05;5.60;99.90
9177;DHT22;4623;54.310;10.112;2023-01-16T04:21:32;5.60;99.90
9177;DHT22;4623;54.310;10.112;2023-01-16T04:23:58;5.60;99.90
9177;DHT22;4623;54.310;10.112;2023-01-16T04:26:24;5.60;99.90
9177;DHT22;4623;54.310;10.112;2023-01-16T04:28:50;5.60;99.90
9177;DHT22;4623;54.310;10.112;2023-01-16T04:31:21;5.60;99.90
9177;DHT22;4623;54.310;10.112;2023-01-16T04:33:47;5.70;99.90
9177;DHT22;4623;54.310;10.112;2023-01-16T04:36:12;5.70;99.90
9177;DHT22;4623;54.310;10.112;2023-01-16T04:38:38;5.60;99.90
9177;DHT22;4623;54.310;10.112;2023-01-16T04:41:03;5.60;99.90
9177;DHT22;4623;54.310;10.112;2023-01-16T04:43:29;5.60;99.90
9177;DHT22;4623;54.310;10.112;2023-01-16T04:45:55;5.70;99.90
9177;DHT22;4623;54.310;10.112;2023-01-16T04:48:20;5.70;99.90
9177;DHT22;4623;54.310;10.112;2023-01-16T04:50:49;5.70;99.90
9177;DHT22;4623;54.310;10.112;2023-01-16T04:53:15;5.60;99.90
9177;DHT22;4623;54.310;10.112;2023-01-16T04:55:40;5.60;99.90
9177;DHT22;4623;54.310;10.112;2023-01-16T04:58:06;5.60;99.90
9177;DHT22;4623;54.310;10.112;2023-01-16T05:00:31;5.50;99.90
9177;DHT22;4623;54.310;10.112;2023-01-16T05:02:57;5.50;99.90
9177;DHT22;4623;54.310;10.112;2023-01-16T05:05:23;5.40;99.90
9177;DHT22;4623;54.310;10.112;2023-01-16T05:07:48;5.30;99.90
9177;DHT22;4623;54.310;10.112;2023-01-16T05:10:34;5.30;99.90
9177;DHT22;4623;54.310;10.112;2023-01-16T05:12:59;5.20;99.90
9177;DHT22;4623;54.310;10.112;2023-01-16T05:15:25;5.10;99.90
9177;DHT22;4623;54.310;10.112;2023-01-16T05:17:50;5.00;99.90
9177;DHT22;4623;54.310;10.112;2023-01-16T05:20:16;5.00;99.90
9177;DHT22;4623;54.310;10.112;2023-01-16T05:22:41;5.00;99.90
9177;DHT22;4623;54.310;10.112;2023-01-16T05:25:07;4.90;99.90
9177;DHT22;4623;54.310;10.112;2023-01-16T05:27:32;5.00;99.90
9177;DHT22;4623;54.310;10.112;2023-01-16T05:29:58;4.90;99.90
9177;DHT22;4623;54.310;10.112;2023-01-16T05:32:23;4.80;99.90
9177;DHT22;4623;54.310;10.112;2023-01-16T05:34:49;4.80;99.90
9177;DHT22;4623;54.310;10.112;2023-01-16T05:37:14;4.80;99.90
9177;DHT22;4623;54.310;10.112;2023-01-16T05:39:40;4.70;99.90
9177;DHT22;4623;54.310;10.112;2023-01-16T05:42:06;4.70;99.90
9177;DHT22;4623;54.310;10.112;2023-01-16T05:44:47;4.70;99.90
9177;DHT22;4623;54.310;10.112;2023-01-16T05:47:13;4.70;99.90
9177;DHT22;4623;54.310;10.112;2023-01-16T05:49:38;4.80;99.90
9177;DHT22;4623;54.310;10.112;2023-01-16T05:52:06;4.80;99.90
9177;DHT22;4623;54.310;10.112;2023-01-16T05:54:32;4.80;99.90
9177;DHT22;4623;54.310;10.112;2023-01-16T05:56:57;4.80;99.90
9177;DHT22;4623;54.310;10.112;2023-01-16T05:59:23;4.80;99.90
9177;DHT22;4623;54.310;10.112;2023-01-16T06:01:48;4.90;99.90
9177;DHT22;4623;54.310;10.112;2023-01-16T06:04:14;4.90;99.90
9177;DHT22;4623;54.310;10.112;2023-01-16T06:06:39;5.00;99.90
9177;DHT22;4623;54.310;10.112;2023-01-16T06:09:05;5.10;99.90
9177;DHT22;4623;54.310;10.112;2023-01-16T06:11:30;5.10;99.90
9177;DHT22;4623;54.310;10.112;2023-01-16T06:13:56;5.10;99.90
9177;DHT22;4623;54.310;10.112;2023-01-16T06:16:22;5.20;99.90
9177;DHT22;4623;54.310;10.112;2023-01-16T06:18:50;5.20;99.90
9177;DHT22;4623;54.310;10.112;2023-01-16T06:21:16;5.20;99.90
9177;DHT22;4623;54.310;10.112;2023-01-16T06:23:41;5.20;99.90
9177;DHT22;4623;54.310;10.112;2023-01-16T06:26:07;5.20;99.90
9177;DHT22;4623;54.310;10.112;2023-01-16T06:28:35;5.20;99.90
9177;DHT22;4623;54.310;10.112;2023-01-16T06:31:02;5.30;99.90
9177;DHT22;4623;54.310;10.112;2023-01-16T06:33:28;5.30;99.90
9177;DHT22;4623;54.310;10.112;2023-01-16T06:35:53;5.30;99.90
9177;DHT22;4623;54.310;10.112;2023-01-16T06:38:19;5.30;99.90
9177;DHT22;4623;54.310;10.112;2023-01-16T06:40:44;5.30;99.90
9177;DHT22;4623;54.310;10.112;2023-01-16T06:43:10;5.30;99.90
9177;DHT22;4623;54.310;10.112;2023-01-16T06:45:36;5.40;99.90
9177;DHT22;4623;54.310;10.112;2023-01-16T06:48:02;5.40;99.90
9177;DHT22;4623;54.310;10.112;2023-01-16T06:50:27;5.40;99.90
9177;DHT22;4623;54.310;10.112;2023-01-16T06:52:53;5.40;99.90
9177;DHT22;4623;54.310;10.112;2023-01-16T06:55:19;5.40;99.90
9177;DHT22;4623;54.310;10.112;2023-01-16T06:57:45;5.40;99.90
9177;DHT22;4623;54.310;10.112;2023-01-16T07:00:11;5.90;99.90
9177;DHT22;4623;54.310;10.112;2023-01-16T07:02:37;6.20;99.90
9177;DHT22;4623;54.310;10.112;2023-01-16T07:05:09;6.40;99.90
9177;DHT22;4623;54.310;10.112;2023-01-16T07:07:35;6.30;99.90
9177;DHT22;4623;54.310;10.112;2023-01-16T07:10:02;6.10;99.90
9177;DHT22;4623;54.310;10.112;2023-01-16T07:12:28;6.00;99.90
9177;DHT22;4623;54.310;10.112;2023-01-16T07:14:54;5.80;99.90
9177;DHT22;4623;54.310;10.112;2023-01-16T07:17:38;5.70;99.90
9177;DHT22;4623;54.310;10.112;2023-01-16T07:20:22;5.60;99.90
9177;DHT22;4623;54.310;10.112;2023-01-16T07:23:22;5.60;99.90
9177;DHT22;4623;54.310;10.112;2023-01-16T07:25:49;5.50;99.90
9177;DHT22;4623;54.310;10.112;2023-01-16T07:28:16;5.50;99.90
9177;DHT22;4623;54.310;10.112;2023-01-16T07:30:43;5.50;99.90
9177;DHT22;4623;54.310;10.112;2023-01-16T07:33:10;5.50;99.90
9177;DHT22;4623;54.310;10.112;2023-01-16T07:35:36;5.50;99.90
9177;DHT22;4623;54.310;10.112;2023-01-16T07:38:02;5.50;99.90
9177;DHT22;4623;54.310;10.112;2023-01-16T07:40:27;5.50;99.90
9177;DHT22;4623;54.310;10.112;2023-01-16T07:42:53;5.50;99.90
9177;DHT22;4623;54.310;10.112;2023-01-16T07:45:18;5.50;99.90
9177;DHT22;4623;54.310;10.112;2023-01-16T07:47:44;5.50;99.90
9177;DHT22;4623;54.310;10.112;2023-01-16T07:50:10;5.50;99.90
9177;DHT22;4623;54.310;10.112;2023-01-16T07:52:35;5.50;99.90
9177;DHT22;4623;54.310;10.112;2023-01-16T07:55:01;5.50;99.90
9177;DHT22;4623;54.310;10.112;2023-01-16T07:57:26;5.50;99.90
9177;DHT22;4623;54.310;10.112;2023-01-16T07:59:53;5.40;99.90
9177;DHT22;4623;54.310;10.112;2023-01-16T08:02:19;5.50;99.90
9177;DHT22;4623;54.310;10.112;2023-01-16T08:04:45;5.50;99.90
9177;DHT22;4623;54.310;10.112;2023-01-16T08:07:10;5.50;99.90
9177;DHT22;4623;54.310;10.112;2023-01-16T08:09:36;5.50;99.90
9177;DHT22;4623;54.310;10.112;2023-01-16T08:12:01;5.50;99.90
9177;DHT22;4623;54.310;10.112;2023-01-16T08:14:28;5.50;99.90
9177;DHT22;4623;54.310;10.112;2023-01-16T08:16:53;5.60;99.90
9177;DHT22;4623;54.310;10.112;2023-01-16T08:19:19;5.50;99.90
9177;DHT22;4623;54.310;10.112;2023-01-16T08:21:44;5.50;99.90
9177;DHT22;4623;54.310;10.112;2023-01-16T08:24:10;5.60;99.90
9177;DHT22;4623;54.310;10.112;2023-01-16T08:26:38;5.60;99.90
9177;DHT22;4623;54.310;10.112;2023-01-16T08:29:04;5.60;99.90
9177;DHT22;4623;54.310;10.112;2023-01-16T08:31:29;5.70;99.90
9177;DHT22;4623;54.310;10.112;2023-01-16T08:33:55;5.70;99.90
9177;DHT22;4623;54.310;10.112;2023-01-16T08:36:21;5.70;99.90
9177;DHT22;4623;54.310;10.112;2023-01-16T08:38:48;5.80;99.90
9177;DHT22;4623;54.310;10.112;2023-01-16T08:41:14;5.80;99.90
9177;DHT22;4623;54.310;10.112;2023-01-16T08:43:58;5.70;99.90
9177;DHT22;4623;54.310;10.112;2023-01-16T08:46:42;5.70;99.90
9177;DHT22;4623;54.310;10.112;2023-01-16T08:49:28;5.90;99.90
9177;DHT22;4623;54.310;10.112;2023-01-16T08:52:12;5.90;99.90
9177;DHT22;4623;54.310;10.112;2023-01-16T08:54:38;6.10;99.90
9177;DHT22;4623;54.310;10.112;2023-01-16T08:57:04;6.30;99.90
9177;DHT22;4623;54.310;10.112;2023-01-16T08:59:30;6.40;99.90
9177;DHT22;4623;54.310;10.112;2023-01-16T09:02:00;6.20;99.90
9177;DHT22;4623;54.310;10.112;2023-01-16T09:04:25;6.40;99.90
9177;DHT22;4623;54.310;10.112;2023-01-16T09:06:51;6.40;99.90
9177;DHT22;4623;54.310;10.112;2023-01-16T09:09:19;6.30;99.90
9177;DHT22;4623;54.310;10.112;2023-01-16T09:11:45;6.30;99.90
9177;DHT22;4623;54.310;10.112;2023-01-16T09:14:29;6.30;99.90
9177;DHT22;4623;54.310;10.112;2023-01-16T09:16:54;6.30;99.90
9177;DHT22;4623;54.310;10.112;2023-01-16T09:19:20;6.20;99.90
9177;DHT22;4623;54.310;10.112;2023-01-16T09:21:45;6.30;99.90
9177;DHT22;4623;54.310;10.112;2023-01-16T09:24:11;6.40;99.90
9177;DHT22;4623;54.310;10.112;2023-01-16T09:26:36;6.40;99.90
9177;DHT22;4623;54.310;10.112;2023-01-16T09:29:02;6.50;99.90
9177;DHT22;4623;54.310;10.112;2023-01-16T09:31:28;6.30;99.90
9177;DHT22;4623;54.310;10.112;2023-01-16T09:33:53;6.30;99.90
9177;DHT22;4623;54.310;10.112;2023-01-16T09:36:20;6.30;99.90
9177;DHT22;4623;54.310;10.112;2023-01-16T09:38:46;6.50;99.90
9177;DHT22;4623;54.310;10.112;2023-01-16T09:41:15;6.50;99.90
9177;DHT22;4623;54.310;10.112;2023-01-16T09:44:01;6.50;99.90
9177;DHT22;4623;54.310;10.112;2023-01-16T09:46:28;6.50;99.90
9177;DHT22;4623;54.310;10.112;2023-01-16T09:51:34;6.60;99.90
9177;DHT22;4623;54.310;10.112;2023-01-16T09:54:05;6.70;99.90
9177;DHT22;4623;54.310;10.112;2023-01-16T09:56:55;6.70;99.90
9177;DHT22;4623;54.310;10.112;2023-01-16T09:59:45;6.70;99.90
9177;DHT22;4623;54.310;10.112;2023-01-16T10:04:49;6.70;99.90
9177;DHT22;4623;54.310;10.112;2023-01-16T10:07:29;6.70;99.90
9177;DHT22;4623;54.310;10.112;2023-01-16T10:13:20;7.40;99.90
9177;DHT22;4623;54.310;10.112;2023-01-16T10:21:27;8.30;99.90
9177;DHT22;4623;54.310;10.112;2023-01-16T10:29:43;10.10;99.90
9177;DHT22;4623;54.310;10.112;2023-01-16T10:33:05;10.30;99.90
9177;DHT22;4623;54.310;10.112;2023-01-16T10:37:38;10.60;99.90
9177;DHT22;4623;54.310;10.112;2023-01-16T10:40:19;10.50;99.90
9177;DHT22;4623;54.310;10.112;2023-01-16T10:43:01;10.10;99.90
9177;DHT22;4623;54.310;10.112;2023-01-16T10:46:19;10.00;99.90
9177;DHT22;4623;54.310;10.112;2023-01-16T10:49:03;10.20;99.90
9177;DHT22;4623;54.310;10.112;2023-01-16T10:51:47;9.80;99.90
9177;DHT22;4623;54.310;10.112;2023-01-16T10:54:13;9.60;99.90
9177;DHT22;4623;54.310;10.112;2023-01-16T10:56:39;9.50;99.90
9177;DHT22;4623;54.310;10.112;2023-01-16T10:59:08;9.10;99.90
9177;DHT22;4623;54.310;10.112;2023-01-16T11:01:34;9.00;99.90
9177;DHT22;4623;54.310;10.112;2023-01-16T11:04:00;8.90;99.90
9177;DHT22;4623;54.310;10.112;2023-01-16T11:06:29;8.40;99.90
9177;DHT22;4623;54.310;10.112;2023-01-16T11:09:19;8.40;99.90
9177;DHT22;4623;54.310;10.112;2023-01-16T11:11:46;8.10;99.90
9177;DHT22;4623;54.310;10.112;2023-01-16T11:14:35;8.00;99.90
9177;DHT22;4623;54.310;10.112;2023-01-16T11:20:27;7.80;99.90
9177;DHT22;4623;54.310;10.112;2023-01-16T11:22:59;7.80;99.90
9177;DHT22;4623;54.310;10.112;2023-01-16T11:25:30;7.60;99.90
9177;DHT22;4623;54.310;10.112;2023-01-16T11:27:58;7.40;99.90
9177;DHT22;4623;54.310;10.112;2023-01-16T11:30:30;7.60;99.90
9177;DHT22;4623;54.310;10.112;2023-01-16T11:32:57;7.70;99.90
9177;DHT22;4623;54.310;10.112;2023-01-16T11:35:31;7.60;99.90
9177;DHT22;4623;54.310;10.112;2023-01-16T11:37:58;7.50;99.90
9177;DHT22;4623;54.310;10.112;2023-01-16T11:40:26;7.50;99.90
9177;DHT22;4623;54.310;10.112;2023-01-16T11:42:55;7.50;99.90
9177;DHT22;4623;54.310;10.112;2023-01-16T11:45:45;7.50;99.90
9177;DHT22;4623;54.310;10.112;2023-01-16T11:48:43;7.40;99.90
9177;DHT22;4623;54.310;10.112;2023-01-16T11:51:19;7.50;99.90
9177;DHT22;4623;54.310;10.112;2023-01-16T11:53:48;7.40;99.90
9177;DHT22;4623;54.310;10.112;2023-01-16T11:56:29;7.20;99.90
9177;DHT22;4623;54.310;10.112;2023-01-16T12:01:51;7.50;99.90
9177;DHT22;4623;54.310;10.112;2023-01-16T12:04:40;7.50;99.90
9177;DHT22;4623;54.310;10.112;2023-01-16T12:07:23;7.60;99.90
9177;DHT22;4623;54.310;10.112;2023-01-16T12:09:57;7.80;99.90
9177;DHT22;4623;54.310;10.112;2023-01-16T12:12:33;7.60;99.90
9177;DHT22;4623;54.310;10.112;2023-01-16T12:15:40;7.60;99.90
9177;DHT22;4623;54.310;10.112;2023-01-16T12:21:09;7.90;99.90
9177;DHT22;4623;54.310;10.112;2023-01-16T12:26:34;8.70;99.90
9177;DHT22;4623;54.310;10.112;2023-01-16T12:29:20;9.20;99.90
9177;DHT22;4623;54.310;10.112;2023-01-16T12:35:01;9.90;99.90
9177;DHT22;4623;54.310;10.112;2023-01-16T12:44:36;10.20;99.90
9177;DHT22;4623;54.310;10.112;2023-01-16T12:50:13;10.00;99.90
9177;DHT22;4623;54.310;10.112;2023-01-16T12:53:10;9.70;99.90
9177;DHT22;4623;54.310;10.112;2023-01-16T12:55:52;9.00;99.90
9177;DHT22;4623;54.310;10.112;2023-01-16T12:58:23;8.40;99.90
9177;DHT22;4623;54.310;10.112;2023-01-16T13:03:52;8.10;99.90
9177;DHT22;4623;54.310;10.112;2023-01-16T13:09:04;7.70;99.90
9177;DHT22;4623;54.310;10.112;2023-01-16T13:11:59;7.70;99.90
9177;DHT22;4623;54.310;10.112;2023-01-16T13:14:47;7.50;99.90
9177;DHT22;4623;54.310;10.112;2023-01-16T13:17:24;7.50;99.90
9177;DHT22;4623;54.310;10.112;2023-01-16T13:19:53;7.40;99.90
9177;DHT22;4623;54.310;10.112;2023-01-16T13:22:28;7.10;99.90
9177;DHT22;4623;54.310;10.112;2023-01-16T13:25:12;7.00;99.90
9177;DHT22;4623;54.310;10.112;2023-01-16T13:27:43;7.10;99.90
9177;DHT22;4623;54.310;10.112;2023-01-16T13:30:15;7.00;99.90
9177;DHT22;4623;54.310;10.112;2023-01-16T13:32:50;7.10;99.90
9177;DHT22;4623;54.310;10.112;2023-01-16T13:35:43;7.00;99.90
9177;DHT22;4623;54.310;10.112;2023-01-16T13:41:14;6.80;99.90
9177;DHT22;4623;54.310;10.112;2023-01-16T13:43:58;6.80;99.90
9177;DHT22;4623;54.310;10.112;2023-01-16T13:46:44;6.80;99.90
9177;DHT22;4623;54.310;10.112;2023-01-16T13:49:25;6.80;99.90
9177;DHT22;4623;54.310;10.112;2023-01-16T13:51:52;6.70;99.90
9177;DHT22;4623;54.310;10.112;2023-01-16T13:54:31;6.80;99.90
9177;DHT22;4623;54.310;10.112;2023-01-16T13:57:03;6.70;99.90
9177;DHT22;4623;54.310;10.112;2023-01-16T14:07:49;6.60;99.90
9177;DHT22;4623;54.310;10.112;2023-01-16T14:13:44;6.50;99.90
9177;DHT22;4623;54.310;10.112;2023-01-16T14:16:26;6.50;99.90
9177;DHT22;4623;54.310;10.112;2023-01-16T14:19:01;6.50;99.90
9177;DHT22;4623;54.310;10.112;2023-01-16T14:24:07;6.30;99.90
9177;DHT22;4623;54.310;10.112;2023-01-16T14:26:46;6.30;99.90
9177;DHT22;4623;54.310;10.112;2023-01-16T14:29:35;6.30;99.90
9177;DHT22;4623;54.310;10.112;2023-01-16T14:32:18;6.30;99.90
9177;DHT22;4623;54.310;10.112;2023-01-16T14:39:50;6.30;99.90
9177;DHT22;4623;54.310;10.112;2023-01-16T14:42:26;6.30;99.90
9177;DHT22;4623;54.310;10.112;2023-01-16T14:54:00;6.40;99.90
9177;DHT22;4623;54.310;10.112;2023-01-16T14:56:50;6.30;99.90
9177;DHT22;4623;54.310;10.112;2023-01-16T14:59:29;6.30;99.90
9177;DHT22;4623;54.310;10.112;2023-01-16T15:02:26;6.30;99.90
9177;DHT22;4623;54.310;10.112;2023-01-16T15:05:14;6.30;99.90
9177;DHT22;4623;54.310;10.112;2023-01-16T15:07:55;6.20;99.90
9177;DHT22;4623;54.310;10.112;2023-01-16T15:10:30;6.20;99.90
9177;DHT22;4623;54.310;10.112;2023-01-16T15:13:23;6.20;99.90
9177;DHT22;4623;54.310;10.112;2023-01-16T15:15:52;6.10;99.90
9177;DHT22;4623;54.310;10.112;2023-01-16T15:18:19;6.10;99.90
9177;DHT22;4623;54.310;10.112;2023-01-16T15:21:11;6.10;99.90
9177;DHT22;4623;54.310;10.112;2023-01-16T15:23:56;6.10;99.90
9177;DHT22;4623;54.310;10.112;2023-01-16T15:32:03;6.00;99.90
9177;DHT22;4623;54.310;10.112;2023-01-16T15:34:30;5.90;99.90
9177;DHT22;4623;54.310;10.112;2023-01-16T15:36:57;6.00;99.90
9177;DHT22;4623;54.310;10.112;2023-01-16T15:49:00;5.80;99.90
9177;DHT22;4623;54.310;10.112;2023-01-16T15:51:01;5.80;99.90
9177;DHT22;4623;54.310;10.112;2023-01-16T15:53:32;5.80;99.90
9177;DHT22;4623;54.310;10.112;2023-01-16T15:56:03;5.80;99.90
9177;DHT22;4623;54.310;10.112;2023-01-16T15:58:29;5.80;99.90
9177;DHT22;4623;54.310;10.112;2023-01-16T16:01:03;5.70;99.90
9177;DHT22;4623;54.310;10.112;2023-01-16T16:03:38;5.70;99.90
9177;DHT22;4623;54.310;10.112;2023-01-16T16:06:06;5.70;99.90
9177;DHT22;4623;54.310;10.112;2023-01-16T16:08:36;5.60;99.90
9177;DHT22;4623;54.310;10.112;2023-01-16T16:11:07;5.70;99.90
9177;DHT22;4623;54.310;10.112;2023-01-16T16:13:53;5.60;99.90
9177;DHT22;4623;54.310;10.112;2023-01-16T16:16:24;5.50;99.90
9177;DHT22;4623;54.310;10.112;2023-01-16T16:19:09;5.40;99.90
9177;DHT22;4623;54.310;10.112;2023-01-16T16:21:44;5.40;99.90
9177;DHT22;4623;54.310;10.112;2023-01-16T16:24:35;5.40;99.90
9177;DHT22;4623;54.310;10.112;2023-01-16T16:27:11;5.40;99.90
9177;DHT22;4623;54.310;10.112;2023-01-16T16:29:37;5.50;99.90
9177;DHT22;4623;54.310;10.112;2023-01-16T16:32:05;5.50;99.90
9177;DHT22;4623;54.310;10.112;2023-01-16T16:34:35;5.50;99.90
9177;DHT22;4623;54.310;10.112;2023-01-16T16:37:02;5.50;99.90
9177;DHT22;4623;54.310;10.112;2023-01-16T16:39:38;5.50;99.90
9177;DHT22;4623;54.310;10.112;2023-01-16T16:47:37;5.50;99.90
9177;DHT22;4623;54.310;10.112;2023-01-16T16:53:09;5.50;99.90
9177;DHT22;4623;54.310;10.112;2023-01-16T16:55:37;5.50;99.90
9177;DHT22;4623;54.310;10.112;2023-01-16T16:58:05;5.50;99.90
9177;DHT22;4623;54.310;10.112;2023-01-16T17:00:37;5.40;99.90
9177;DHT22;4623;54.310;10.112;2023-01-16T17:05:37;5.50;99.90
9177;DHT22;4623;54.310;10.112;2023-01-16T17:08:03;5.50;99.90
9177;DHT22;4623;54.310;10.112;2023-01-16T17:10:29;5.40;99.90
9177;DHT22;4623;54.310;10.112;2023-01-16T17:12:55;5.50;99.90
9177;DHT22;4623;54.310;10.112;2023-01-16T17:15:22;5.50;99.90
9177;DHT22;4623;54.310;10.112;2023-01-16T17:17:48;5.50;99.90
9177;DHT22;4623;54.310;10.112;2023-01-16T17:20:22;5.60;99.90
9177;DHT22;4623;54.310;10.112;2023-01-16T17:22:48;5.50;99.90
9177;DHT22;4623;54.310;10.112;2023-01-16T17:25:15;5.50;99.90
9177;DHT22;4623;54.310;10.112;2023-01-16T17:27:46;5.60;99.90
9177;DHT22;4623;54.310;10.112;2023-01-16T17:30:13;5.60;99.90
9177;DHT22;4623;54.310;10.112;2023-01-16T17:32:39;5.60;99.90
9177;DHT22;4623;54.310;10.112;2023-01-16T17:35:07;5.60;99.90
9177;DHT22;4623;54.310;10.112;2023-01-16T17:37:33;5.70;99.90
9177;DHT22;4623;54.310;10.112;2023-01-16T17:39:58;5.60;99.90
9177;DHT22;4623;54.310;10.112;2023-01-16T17:42:24;5.70;99.90
9177;DHT22;4623;54.310;10.112;2023-01-16T17:45:24;5.70;99.90
9177;DHT22;4623;54.310;10.112;2023-01-16T17:48:10;5.60;99.90
9177;DHT22;4623;54.310;10.112;2023-01-16T17:50:35;5.60;99.90
9177;DHT22;4623;54.310;10.112;2023-01-16T17:53:01;5.70;99.90
9177;DHT22;4623;54.310;10.112;2023-01-16T17:55:28;5.70;99.90
9177;DHT22;4623;54.310;10.112;2023-01-16T17:58:12;5.70;99.90
9177;DHT22;4623;54.310;10.112;2023-01-16T18:00:37;5.70;99.90
9177;DHT22;4623;54.310;10.112;2023-01-16T18:03:05;5.70;99.90
9177;DHT22;4623;54.310;10.112;2023-01-16T18:05:32;5.70;99.90
9177;DHT22;4623;54.310;10.112;2023-01-16T18:07:58;5.70;99.90
9177;DHT22;4623;54.310;10.112;2023-01-16T18:10:23;5.60;99.90
9177;DHT22;4623;54.310;10.112;2023-01-16T18:12:49;5.60;99.90
9177;DHT22;4623;54.310;10.112;2023-01-16T18:15:33;5.60;99.90
9177;DHT22;4623;54.310;10.112;2023-01-16T18:18:17;5.60;99.90
9177;DHT22;4623;54.310;10.112;2023-01-16T18:20:43;5.60;99.90
9177;DHT22;4623;54.310;10.112;2023-01-16T18:23:08;5.70;99.90
9177;DHT22;4623;54.310;10.112;2023-01-16T18:25:38;5.70;99.90
9177;DHT22;4623;54.310;10.112;2023-01-16T18:28:03;5.70;99.90
9177;DHT22;4623;54.310;10.112;2023-01-16T18:30:29;5.70;99.90
9177;DHT22;4623;54.310;10.112;2023-01-16T18:32:54;5.70;99.90
9177;DHT22;4623;54.310;10.112;2023-01-16T18:35:20;5.70;99.90
9177;DHT22;4623;54.310;10.112;2023-01-16T18:37:46;5.70;99.90
9177;DHT22;4623;54.310;10.112;2023-01-16T18:40:30;5.70;99.90
9177;DHT22;4623;54.310;10.112;2023-01-16T18:43:15;5.70;99.90
9177;DHT22;4623;54.310;10.112;2023-01-16T18:45:59;5.70;99.90
9177;DHT22;4623;54.310;10.112;2023-01-16T18:48:43;5.80;99.90
9177;DHT22;4623;54.310;10.112;2023-01-16T18:51:27;5.80;99.90
9177;DHT22;4623;54.310;10.112;2023-01-16T18:54:15;5.70;99.90